Nemencine, Lithuania
Current Conditions -  °F | °C
As of 7:50 PM on Sunday 23 Nov 2014 (Local Time) from EYVI Reporting Station
Haze Haze  
Wind Chill: 26°   Ceiling: 500
Heat Index: 32°   Visibility: 1.8mi
Dew Point: 32°   Wind: 6mph
Humidity: 100%   Direction: 60°ENE
Pressure: 30.5"   Gusts: NA
Location:  54.85°N, 25.48°E
Report Text: EYVI 231650Z 06005KT 040V100 2900 BR OVC005 00/M00 Q1033 R02/2///95 NOSIG
Loading
Personal Weather Stations






























Interactive Weather Map New forecast layout! Learn more

10-Day Weather Forecast

Advertisements
Track Severe Weather on mobile